sensor_id;sensor_type;location;lat;lon;timestamp;P1;durP1;ratioP1;P2;durP2;ratioP2
67076;SDS011;53991;46.364;17.008;2022-09-13T00:00:04;6.18;;;3.85;;
67076;SDS011;53991;46.364;17.008;2022-09-13T00:03:07;8.00;;;4.30;;
67076;SDS011;53991;46.364;17.008;2022-09-13T00:06:12;4.45;;;3.47;;
67076;SDS011;53991;46.364;17.008;2022-09-13T00:09:15;6.15;;;3.60;;
67076;SDS011;53991;46.364;17.008;2022-09-13T00:12:18;3.90;;;3.50;;
67076;SDS011;53991;46.364;17.008;2022-09-13T00:15:20;7.32;;;3.40;;
67076;SDS011;53991;46.364;17.008;2022-09-13T00:18:22;5.22;;;4.22;;
67076;SDS011;53991;46.364;17.008;2022-09-13T00:21:24;4.50;;;3.20;;
67076;SDS011;53991;46.364;17.008;2022-09-13T00:24:26;4.35;;;2.70;;
67076;SDS011;53991;46.364;17.008;2022-09-13T00:27:28;3.65;;;2.80;;
67076;SDS011;53991;46.364;17.008;2022-09-13T00:30:31;4.22;;;2.20;;
67076;SDS011;53991;46.364;17.008;2022-09-13T00:36:35;3.25;;;2.20;;
67076;SDS011;53991;46.364;17.008;2022-09-13T00:39:37;2.80;;;2.03;;
67076;SDS011;53991;46.364;17.008;2022-09-13T00:42:39;2.13;;;1.60;;
67076;SDS011;53991;46.364;17.008;2022-09-13T00:45:41;2.40;;;1.58;;
67076;SDS011;53991;46.364;17.008;2022-09-13T00:48:43;1.75;;;1.25;;
67076;SDS011;53991;46.364;17.008;2022-09-13T00:51:57;2.05;;;1.58;;
67076;SDS011;53991;46.364;17.008;2022-09-13T00:55:07;2.42;;;0.73;;
67076;SDS011;53991;46.364;17.008;2022-09-13T00:58:32;5.40;;;1.30;;
67076;SDS011;53991;46.364;17.008;2022-09-13T01:01:56;1.95;;;0.73;;
67076;SDS011;53991;46.364;17.008;2022-09-13T01:04:59;1.48;;;0.77;;
67076;SDS011;53991;46.364;17.008;2022-09-13T01:08:01;0.25;;;0.25;;
67076;SDS011;53991;46.364;17.008;2022-09-13T01:11:04;1.30;;;0.75;;
67076;SDS011;53991;46.364;17.008;2022-09-13T01:14:11;0.40;;;0.40;;
67076;SDS011;53991;46.364;17.008;2022-09-13T01:17:14;1.00;;;0.65;;
67076;SDS011;53991;46.364;17.008;2022-09-13T01:20:16;0.65;;;0.38;;
67076;SDS011;53991;46.364;17.008;2022-09-13T01:23:29;0.30;;;0.00;;
67076;SDS011;53991;46.364;17.008;2022-09-13T01:34:12;0.52;;;0.52;;
67076;SDS011;53991;46.364;17.008;2022-09-13T01:47:37;0.30;;;0.30;;
67076;SDS011;53991;46.364;17.008;2022-09-13T01:53:57;0.05;;;0.05;;
67076;SDS011;53991;46.364;17.008;2022-09-13T02:00:22;0.10;;;0.10;;
67076;SDS011;53991;46.364;17.008;2022-09-13T02:06:35;0.10;;;0.10;;
67076;SDS011;53991;46.364;17.008;2022-09-13T02:10:05;0.00;;;0.00;;
67076;SDS011;53991;46.364;17.008;2022-09-13T02:13:18;0.25;;;0.25;;
67076;SDS011;53991;46.364;17.008;2022-09-13T02:16:25;0.00;;;0.00;;
67076;SDS011;53991;46.364;17.008;2022-09-13T02:19:43;0.03;;;0.03;;
67076;SDS011;53991;46.364;17.008;2022-09-13T02:23:09;0.22;;;0.10;;
67076;SDS011;53991;46.364;17.008;2022-09-13T02:26:15;0.03;;;0.03;;
67076;SDS011;53991;46.364;17.008;2022-09-13T02:29:22;0.20;;;0.20;;
67076;SDS011;53991;46.364;17.008;2022-09-13T02:32:30;0.10;;;0.10;;
67076;SDS011;53991;46.364;17.008;2022-09-13T02:35:41;0.08;;;0.08;;
67076;SDS011;53991;46.364;17.008;2022-09-13T02:38:49;0.00;;;0.00;;
67076;SDS011;53991;46.364;17.008;2022-09-13T02:42:07;0.70;;;0.70;;
67076;SDS011;53991;46.364;17.008;2022-09-13T02:45:14;0.20;;;0.20;;
67076;SDS011;53991;46.364;17.008;2022-09-13T02:48:25;0.10;;;0.10;;
67076;SDS011;53991;46.364;17.008;2022-09-13T02:51:58;0.70;;;0.55;;
67076;SDS011;53991;46.364;17.008;2022-09-13T02:58:24;0.00;;;0.00;;
67076;SDS011;53991;46.364;17.008;2022-09-13T03:01:34;0.03;;;0.03;;
67076;SDS011;53991;46.364;17.008;2022-09-13T03:04:38;0.00;;;0.00;;
67076;SDS011;53991;46.364;17.008;2022-09-13T03:07:40;0.20;;;0.20;;
67076;SDS011;53991;46.364;17.008;2022-09-13T03:20:36;0.00;;;0.00;;
67076;SDS011;53991;46.364;17.008;2022-09-13T03:27:23;0.00;;;0.00;;
67076;SDS011;53991;46.364;17.008;2022-09-13T03:31:12;0.55;;;0.38;;
67076;SDS011;53991;46.364;17.008;2022-09-13T03:38:08;2.08;;;0.30;;
67076;SDS011;53991;46.364;17.008;2022-09-13T03:41:13;0.10;;;0.10;;
67076;SDS011;53991;46.364;17.008;2022-09-13T03:44:20;0.63;;;0.63;;
67076;SDS011;53991;46.364;17.008;2022-09-13T03:47:23;0.00;;;0.00;;
67076;SDS011;53991;46.364;17.008;2022-09-13T03:50:27;0.00;;;0.00;;
67076;SDS011;53991;46.364;17.008;2022-09-13T03:53:30;0.08;;;0.08;;
67076;SDS011;53991;46.364;17.008;2022-09-13T03:56:36;0.00;;;0.00;;
67076;SDS011;53991;46.364;17.008;2022-09-13T03:59:40;0.00;;;0.00;;
67076;SDS011;53991;46.364;17.008;2022-09-13T04:02:46;0.00;;;0.00;;
67076;SDS011;53991;46.364;17.008;2022-09-13T04:05:48;0.00;;;0.00;;
67076;SDS011;53991;46.364;17.008;2022-09-13T04:08:50;0.05;;;0.05;;
67076;SDS011;53991;46.364;17.008;2022-09-13T04:11:52;0.45;;;0.43;;
67076;SDS011;53991;46.364;17.008;2022-09-13T04:14:54;0.20;;;0.17;;
67076;SDS011;53991;46.364;17.008;2022-09-13T04:17:56;0.30;;;0.30;;
67076;SDS011;53991;46.364;17.008;2022-09-13T04:20:59;0.08;;;0.08;;
67076;SDS011;53991;46.364;17.008;2022-09-13T04:24:01;1.45;;;0.47;;
67076;SDS011;53991;46.364;17.008;2022-09-13T04:27:04;0.00;;;0.00;;
67076;SDS011;53991;46.364;17.008;2022-09-13T04:30:07;0.40;;;0.40;;
67076;SDS011;53991;46.364;17.008;2022-09-13T04:36:11;0.00;;;0.00;;
67076;SDS011;53991;46.364;17.008;2022-09-13T04:39:13;0.20;;;0.20;;
67076;SDS011;53991;46.364;17.008;2022-09-13T04:42:15;0.22;;;0.22;;
67076;SDS011;53991;46.364;17.008;2022-09-13T04:45:17;0.28;;;0.28;;
67076;SDS011;53991;46.364;17.008;2022-09-13T04:48:19;0.08;;;0.08;;
67076;SDS011;53991;46.364;17.008;2022-09-13T04:51:21;0.00;;;0.00;;
67076;SDS011;53991;46.364;17.008;2022-09-13T04:54:23;0.20;;;0.10;;
67076;SDS011;53991;46.364;17.008;2022-09-13T04:57:25;0.50;;;0.50;;
67076;SDS011;53991;46.364;17.008;2022-09-13T05:00:27;0.30;;;0.30;;
67076;SDS011;53991;46.364;17.008;2022-09-13T05:03:30;0.00;;;0.00;;
67076;SDS011;53991;46.364;17.008;2022-09-13T05:06:33;0.00;;;0.00;;
67076;SDS011;53991;46.364;17.008;2022-09-13T05:09:36;0.00;;;0.00;;
67076;SDS011;53991;46.364;17.008;2022-09-13T05:12:37;0.10;;;0.10;;
67076;SDS011;53991;46.364;17.008;2022-09-13T05:15:39;0.55;;;0.15;;
67076;SDS011;53991;46.364;17.008;2022-09-13T05:18:41;0.00;;;0.00;;
67076;SDS011;53991;46.364;17.008;2022-09-13T05:21:45;0.10;;;0.10;;
67076;SDS011;53991;46.364;17.008;2022-09-13T05:24:47;0.10;;;0.10;;
67076;SDS011;53991;46.364;17.008;2022-09-13T05:27:50;0.10;;;0.10;;
67076;SDS011;53991;46.364;17.008;2022-09-13T05:34:13;0.40;;;0.40;;
67076;SDS011;53991;46.364;17.008;2022-09-13T05:37:17;0.35;;;0.35;;
67076;SDS011;53991;46.364;17.008;2022-09-13T05:40:19;0.30;;;0.30;;
67076;SDS011;53991;46.364;17.008;2022-09-13T05:43:22;0.00;;;0.00;;
67076;SDS011;53991;46.364;17.008;2022-09-13T05:46:26;0.20;;;0.20;;
67076;SDS011;53991;46.364;17.008;2022-09-13T05:49:28;0.00;;;0.00;;
67076;SDS011;53991;46.364;17.008;2022-09-13T05:52:31;0.00;;;0.00;;
67076;SDS011;53991;46.364;17.008;2022-09-13T05:55:33;0.25;;;0.25;;
67076;SDS011;53991;46.364;17.008;2022-09-13T05:58:38;0.00;;;0.00;;
67076;SDS011;53991;46.364;17.008;2022-09-13T06:01:44;0.00;;;0.00;;
67076;SDS011;53991;46.364;17.008;2022-09-13T06:04:46;0.60;;;0.60;;
67076;SDS011;53991;46.364;17.008;2022-09-13T06:07:48;0.28;;;0.28;;
67076;SDS011;53991;46.364;17.008;2022-09-13T06:10:57;0.52;;;0.20;;
67076;SDS011;53991;46.364;17.008;2022-09-13T06:14:17;0.00;;;0.00;;
67076;SDS011;53991;46.364;17.008;2022-09-13T06:17:19;0.20;;;0.20;;
67076;SDS011;53991;46.364;17.008;2022-09-13T06:20:21;0.00;;;0.00;;
67076;SDS011;53991;46.364;17.008;2022-09-13T06:23:24;0.08;;;0.08;;
67076;SDS011;53991;46.364;17.008;2022-09-13T06:26:26;0.52;;;0.52;;
67076;SDS011;53991;46.364;17.008;2022-09-13T06:29:29;0.88;;;0.88;;
67076;SDS011;53991;46.364;17.008;2022-09-13T06:32:31;0.08;;;0.08;;
67076;SDS011;53991;46.364;17.008;2022-09-13T06:35:33;0.00;;;0.00;;
67076;SDS011;53991;46.364;17.008;2022-09-13T06:38:35;0.10;;;0.10;;
67076;SDS011;53991;46.364;17.008;2022-09-13T06:41:37;0.65;;;0.65;;
67076;SDS011;53991;46.364;17.008;2022-09-13T06:44:39;0.10;;;0.10;;
67076;SDS011;53991;46.364;17.008;2022-09-13T06:47:41;0.00;;;0.00;;
67076;SDS011;53991;46.364;17.008;2022-09-13T06:50:43;0.00;;;0.00;;
67076;SDS011;53991;46.364;17.008;2022-09-13T06:53:45;0.05;;;0.05;;
67076;SDS011;53991;46.364;17.008;2022-09-13T06:56:48;3.20;;;1.52;;
67076;SDS011;53991;46.364;17.008;2022-09-13T06:59:50;0.60;;;0.60;;
67076;SDS011;53991;46.364;17.008;2022-09-13T07:02:52;0.10;;;0.10;;
67076;SDS011;53991;46.364;17.008;2022-09-13T07:05:54;0.10;;;0.10;;
67076;SDS011;53991;46.364;17.008;2022-09-13T07:08:56;0.50;;;0.50;;
67076;SDS011;53991;46.364;17.008;2022-09-13T07:11:59;0.00;;;0.00;;
67076;SDS011;53991;46.364;17.008;2022-09-13T07:15:01;0.52;;;0.52;;
67076;SDS011;53991;46.364;17.008;2022-09-13T07:18:03;0.60;;;0.60;;
67076;SDS011;53991;46.364;17.008;2022-09-13T07:21:07;0.10;;;0.10;;
67076;SDS011;53991;46.364;17.008;2022-09-13T07:24:10;0.15;;;0.15;;
67076;SDS011;53991;46.364;17.008;2022-09-13T07:27:12;0.57;;;0.57;;
67076;SDS011;53991;46.364;17.008;2022-09-13T07:30:14;0.20;;;0.20;;
67076;SDS011;53991;46.364;17.008;2022-09-13T07:33:16;0.20;;;0.20;;
67076;SDS011;53991;46.364;17.008;2022-09-13T07:36:18;0.32;;;0.32;;
67076;SDS011;53991;46.364;17.008;2022-09-13T07:39:20;0.40;;;0.40;;
67076;SDS011;53991;46.364;17.008;2022-09-13T07:42:23;1.27;;;0.98;;
67076;SDS011;53991;46.364;17.008;2022-09-13T07:45:25;0.20;;;0.20;;
67076;SDS011;53991;46.364;17.008;2022-09-13T07:48:27;0.35;;;0.03;;
67076;SDS011;53991;46.364;17.008;2022-09-13T07:51:34;0.22;;;0.22;;
67076;SDS011;53991;46.364;17.008;2022-09-13T07:54:37;0.28;;;0.28;;
67076;SDS011;53991;46.364;17.008;2022-09-13T07:57:39;0.00;;;0.00;;
67076;SDS011;53991;46.364;17.008;2022-09-13T08:00:41;0.08;;;0.08;;
67076;SDS011;53991;46.364;17.008;2022-09-13T08:03:44;0.20;;;0.20;;
67076;SDS011;53991;46.364;17.008;2022-09-13T08:06:50;0.08;;;0.08;;
67076;SDS011;53991;46.364;17.008;2022-09-13T08:09:52;0.00;;;0.00;;
67076;SDS011;53991;46.364;17.008;2022-09-13T08:12:54;0.88;;;0.65;;
67076;SDS011;53991;46.364;17.008;2022-09-13T08:15:56;0.00;;;0.00;;
67076;SDS011;53991;46.364;17.008;2022-09-13T08:18:59;0.00;;;0.00;;
67076;SDS011;53991;46.364;17.008;2022-09-13T08:22:02;0.05;;;0.05;;
67076;SDS011;53991;46.364;17.008;2022-09-13T08:25:05;0.50;;;0.50;;
67076;SDS011;53991;46.364;17.008;2022-09-13T08:28:08;0.35;;;0.35;;
67076;SDS011;53991;46.364;17.008;2022-09-13T08:31:17;0.00;;;0.00;;
67076;SDS011;53991;46.364;17.008;2022-09-13T08:34:19;0.00;;;0.00;;
67076;SDS011;53991;46.364;17.008;2022-09-13T08:37:21;0.10;;;0.10;;
67076;SDS011;53991;46.364;17.008;2022-09-13T08:40:23;0.63;;;0.30;;
67076;SDS011;53991;46.364;17.008;2022-09-13T08:53:27;2.72;;;0.50;;
67076;SDS011;53991;46.364;17.008;2022-09-13T08:56:34;0.00;;;0.00;;
67076;SDS011;53991;46.364;17.008;2022-09-13T08:59:48;0.00;;;0.00;;
67076;SDS011;53991;46.364;17.008;2022-09-13T09:06:59;0.30;;;0.30;;
67076;SDS011;53991;46.364;17.008;2022-09-13T09:10:04;0.00;;;0.00;;
67076;SDS011;53991;46.364;17.008;2022-09-13T09:19:44;0.00;;;0.00;;
67076;SDS011;53991;46.364;17.008;2022-09-13T09:22:49;0.00;;;0.00;;
67076;SDS011;53991;46.364;17.008;2022-09-13T09:25:55;0.50;;;0.50;;
67076;SDS011;53991;46.364;17.008;2022-09-13T09:29:15;0.00;;;0.00;;
67076;SDS011;53991;46.364;17.008;2022-09-13T09:35:53;0.65;;;0.65;;
67076;SDS011;53991;46.364;17.008;2022-09-13T09:39:10;0.28;;;0.28;;
67076;SDS011;53991;46.364;17.008;2022-09-13T09:42:17;0.13;;;0.13;;
67076;SDS011;53991;46.364;17.008;2022-09-13T09:45:25;0.20;;;0.20;;
67076;SDS011;53991;46.364;17.008;2022-09-13T09:48:43;0.10;;;0.10;;
67076;SDS011;53991;46.364;17.008;2022-09-13T09:51:49;0.10;;;0.10;;
67076;SDS011;53991;46.364;17.008;2022-09-13T10:00:58;0.00;;;0.00;;
67076;SDS011;53991;46.364;17.008;2022-09-13T10:07:30;0.08;;;0.08;;
67076;SDS011;53991;46.364;17.008;2022-09-13T10:10:43;0.00;;;0.00;;
67076;SDS011;53991;46.364;17.008;2022-09-13T10:14:00;0.00;;;0.00;;
67076;SDS011;53991;46.364;17.008;2022-09-13T10:20:25;0.00;;;0.00;;
67076;SDS011;53991;46.364;17.008;2022-09-13T10:23:28;0.03;;;0.03;;
67076;SDS011;53991;46.364;17.008;2022-09-13T10:26:31;0.30;;;0.15;;
67076;SDS011;53991;46.364;17.008;2022-09-13T10:29:34;0.00;;;0.00;;
67076;SDS011;53991;46.364;17.008;2022-09-13T10:35:38;0.05;;;0.05;;
67076;SDS011;53991;46.364;17.008;2022-09-13T10:38:40;0.00;;;0.00;;
67076;SDS011;53991;46.364;17.008;2022-09-13T10:41:52;1.98;;;0.65;;
67076;SDS011;53991;46.364;17.008;2022-09-13T10:45:19;0.32;;;0.32;;
67076;SDS011;53991;46.364;17.008;2022-09-13T10:48:24;0.45;;;0.25;;
67076;SDS011;53991;46.364;17.008;2022-09-13T10:51:33;0.00;;;0.00;;
67076;SDS011;53991;46.364;17.008;2022-09-13T10:54:37;2.35;;;1.55;;
67076;SDS011;53991;46.364;17.008;2022-09-13T10:57:38;0.32;;;0.32;;
67076;SDS011;53991;46.364;17.008;2022-09-13T11:07:23;0.20;;;0.13;;
67076;SDS011;53991;46.364;17.008;2022-09-13T11:10:50;1.50;;;0.17;;
67076;SDS011;53991;46.364;17.008;2022-09-13T11:20:31;0.00;;;0.00;;
67076;SDS011;53991;46.364;17.008;2022-09-13T11:50:36;0.10;;;0.10;;
67076;SDS011;53991;46.364;17.008;2022-09-13T12:00:22;1.45;;;1.08;;
67076;SDS011;53991;46.364;17.008;2022-09-13T12:03:30;0.00;;;0.00;;
67076;SDS011;53991;46.364;17.008;2022-09-13T12:12:44;0.00;;;0.00;;
67076;SDS011;53991;46.364;17.008;2022-09-13T12:15:50;0.15;;;0.15;;
67076;SDS011;53991;46.364;17.008;2022-09-13T12:18:58;0.10;;;0.10;;
67076;SDS011;53991;46.364;17.008;2022-09-13T12:22:05;0.10;;;0.10;;
67076;SDS011;53991;46.364;17.008;2022-09-13T12:25:22;0.00;;;0.00;;
67076;SDS011;53991;46.364;17.008;2022-09-13T12:28:31;0.25;;;0.25;;
67076;SDS011;53991;46.364;17.008;2022-09-13T12:31:39;0.17;;;0.15;;
67076;SDS011;53991;46.364;17.008;2022-09-13T12:35:01;0.20;;;0.20;;
67076;SDS011;53991;46.364;17.008;2022-09-13T13:01:55;0.08;;;0.08;;
67076;SDS011;53991;46.364;17.008;2022-09-13T13:05:05;0.08;;;0.08;;
67076;SDS011;53991;46.364;17.008;2022-09-13T13:08:36;0.00;;;0.00;;
67076;SDS011;53991;46.364;17.008;2022-09-13T13:11:43;0.65;;;0.65;;
67076;SDS011;53991;46.364;17.008;2022-09-13T13:14:47;0.28;;;0.28;;
67076;SDS011;53991;46.364;17.008;2022-09-13T13:17:53;0.47;;;0.47;;
67076;SDS011;53991;46.364;17.008;2022-09-13T13:27:32;0.15;;;0.13;;
67076;SDS011;53991;46.364;17.008;2022-09-13T13:33:51;0.00;;;0.00;;
67076;SDS011;53991;46.364;17.008;2022-09-13T13:40:20;0.20;;;0.10;;
67076;SDS011;53991;46.364;17.008;2022-09-13T13:43:29;0.00;;;0.00;;
67076;SDS011;53991;46.364;17.008;2022-09-13T13:46:32;0.20;;;0.20;;
67076;SDS011;53991;46.364;17.008;2022-09-13T13:52:49;0.28;;;0.28;;
67076;SDS011;53991;46.364;17.008;2022-09-13T13:59:37;0.00;;;0.00;;
67076;SDS011;53991;46.364;17.008;2022-09-13T14:12:20;0.10;;;0.10;;
67076;SDS011;53991;46.364;17.008;2022-09-13T14:28:20;0.10;;;0.10;;
67076;SDS011;53991;46.364;17.008;2022-09-13T14:31:23;0.00;;;0.00;;
67076;SDS011;53991;46.364;17.008;2022-09-13T14:37:34;0.22;;;0.22;;
67076;SDS011;53991;46.364;17.008;2022-09-13T14:40:38;0.20;;;0.20;;
67076;SDS011;53991;46.364;17.008;2022-09-13T14:46:42;0.00;;;0.00;;
67076;SDS011;53991;46.364;17.008;2022-09-13T14:49:50;0.05;;;0.05;;
67076;SDS011;53991;46.364;17.008;2022-09-13T14:53:02;0.00;;;0.00;;
67076;SDS011;53991;46.364;17.008;2022-09-13T14:56:10;0.00;;;0.00;;
67076;SDS011;53991;46.364;17.008;2022-09-13T15:03:03;0.13;;;0.13;;
67076;SDS011;53991;46.364;17.008;2022-09-13T15:06:19;0.00;;;0.00;;
67076;SDS011;53991;46.364;17.008;2022-09-13T15:09:33;0.00;;;0.00;;
67076;SDS011;53991;46.364;17.008;2022-09-13T15:12:35;0.00;;;0.00;;
67076;SDS011;53991;46.364;17.008;2022-09-13T15:15:38;0.00;;;0.00;;
67076;SDS011;53991;46.364;17.008;2022-09-13T15:18:44;0.00;;;0.00;;
67076;SDS011;53991;46.364;17.008;2022-09-13T15:21:46;0.30;;;0.30;;
67076;SDS011;53991;46.364;17.008;2022-09-13T15:24:49;0.10;;;0.10;;
67076;SDS011;53991;46.364;17.008;2022-09-13T15:27:52;0.15;;;0.15;;
67076;SDS011;53991;46.364;17.008;2022-09-13T15:30:56;0.10;;;0.10;;
67076;SDS011;53991;46.364;17.008;2022-09-13T15:34:09;0.10;;;0.10;;
67076;SDS011;53991;46.364;17.008;2022-09-13T15:37:17;0.00;;;0.00;;
67076;SDS011;53991;46.364;17.008;2022-09-13T15:40:30;0.35;;;0.35;;
67076;SDS011;53991;46.364;17.008;2022-09-13T15:43:43;0.00;;;0.00;;
67076;SDS011;53991;46.364;17.008;2022-09-13T15:49:53;0.00;;;0.00;;
67076;SDS011;53991;46.364;17.008;2022-09-13T15:56:02;0.00;;;0.00;;
67076;SDS011;53991;46.364;17.008;2022-09-13T15:59:04;0.00;;;0.00;;
67076;SDS011;53991;46.364;17.008;2022-09-13T16:02:21;0.15;;;0.05;;
67076;SDS011;53991;46.364;17.008;2022-09-13T16:05:24;0.00;;;0.00;;
67076;SDS011;53991;46.364;17.008;2022-09-13T16:08:26;0.00;;;0.00;;
67076;SDS011;53991;46.364;17.008;2022-09-13T16:11:28;0.00;;;0.00;;
67076;SDS011;53991;46.364;17.008;2022-09-13T16:14:30;2.20;;;0.30;;
67076;SDS011;53991;46.364;17.008;2022-09-13T16:17:32;0.05;;;0.05;;
67076;SDS011;53991;46.364;17.008;2022-09-13T16:23:36;0.00;;;0.00;;
67076;SDS011;53991;46.364;17.008;2022-09-13T16:29:41;0.00;;;0.00;;
67076;SDS011;53991;46.364;17.008;2022-09-13T16:32:43;0.10;;;0.10;;
67076;SDS011;53991;46.364;17.008;2022-09-13T16:35:45;0.10;;;0.10;;
67076;SDS011;53991;46.364;17.008;2022-09-13T16:38:47;0.60;;;0.60;;
67076;SDS011;53991;46.364;17.008;2022-09-13T16:41:49;0.10;;;0.10;;
67076;SDS011;53991;46.364;17.008;2022-09-13T16:47:53;0.03;;;0.03;;
67076;SDS011;53991;46.364;17.008;2022-09-13T16:51:00;0.00;;;0.00;;
67076;SDS011;53991;46.364;17.008;2022-09-13T16:54:06;0.00;;;0.00;;
67076;SDS011;53991;46.364;17.008;2022-09-13T16:57:07;0.38;;;0.38;;
67076;SDS011;53991;46.364;17.008;2022-09-13T17:00:10;0.00;;;0.00;;
67076;SDS011;53991;46.364;17.008;2022-09-13T17:03:12;0.00;;;0.00;;
67076;SDS011;53991;46.364;17.008;2022-09-13T17:06:15;1.13;;;1.08;;
67076;SDS011;53991;46.364;17.008;2022-09-13T17:09:18;0.00;;;0.00;;
67076;SDS011;53991;46.364;17.008;2022-09-13T17:12:20;0.00;;;0.00;;
67076;SDS011;53991;46.364;17.008;2022-09-13T17:15:22;0.00;;;0.00;;
67076;SDS011;53991;46.364;17.008;2022-09-13T17:18:24;0.00;;;0.00;;
67076;SDS011;53991;46.364;17.008;2022-09-13T17:21:27;0.00;;;0.00;;
67076;SDS011;53991;46.364;17.008;2022-09-13T17:24:29;0.10;;;0.10;;
67076;SDS011;53991;46.364;17.008;2022-09-13T17:27:32;0.63;;;0.63;;
67076;SDS011;53991;46.364;17.008;2022-09-13T17:30:33;0.35;;;0.35;;
67076;SDS011;53991;46.364;17.008;2022-09-13T17:33:35;0.10;;;0.10;;
67076;SDS011;53991;46.364;17.008;2022-09-13T17:36:38;0.00;;;0.00;;
67076;SDS011;53991;46.364;17.008;2022-09-13T17:39:40;0.00;;;0.00;;
67076;SDS011;53991;46.364;17.008;2022-09-13T17:42:42;0.00;;;0.00;;
67076;SDS011;53991;46.364;17.008;2022-09-13T17:45:44;0.00;;;0.00;;
67076;SDS011;53991;46.364;17.008;2022-09-13T17:48:46;0.00;;;0.00;;
67076;SDS011;53991;46.364;17.008;2022-09-13T17:51:49;0.05;;;0.05;;
67076;SDS011;53991;46.364;17.008;2022-09-13T17:54:51;0.00;;;0.00;;
67076;SDS011;53991;46.364;17.008;2022-09-13T17:57:53;0.20;;;0.20;;
67076;SDS011;53991;46.364;17.008;2022-09-13T18:00:59;0.00;;;0.00;;
67076;SDS011;53991;46.364;17.008;2022-09-13T18:04:08;2.22;;;0.45;;
67076;SDS011;53991;46.364;17.008;2022-09-13T18:07:11;0.20;;;0.20;;
67076;SDS011;53991;46.364;17.008;2022-09-13T18:10:14;0.00;;;0.00;;
67076;SDS011;53991;46.364;17.008;2022-09-13T18:13:36;0.35;;;0.25;;
67076;SDS011;53991;46.364;17.008;2022-09-13T18:16:39;0.00;;;0.00;;
67076;SDS011;53991;46.364;17.008;2022-09-13T18:19:41;0.32;;;0.32;;
67076;SDS011;53991;46.364;17.008;2022-09-13T18:22:47;1.38;;;0.52;;
67076;SDS011;53991;46.364;17.008;2022-09-13T18:26:24;0.00;;;0.00;;
67076;SDS011;53991;46.364;17.008;2022-09-13T18:29:19;0.10;;;0.10;;
67076;SDS011;53991;46.364;17.008;2022-09-13T18:32:22;0.20;;;0.20;;
67076;SDS011;53991;46.364;17.008;2022-09-13T18:35:24;0.80;;;0.30;;
67076;SDS011;53991;46.364;17.008;2022-09-13T18:38:27;0.25;;;0.10;;
67076;SDS011;53991;46.364;17.008;2022-09-13T18:41:37;0.08;;;0.08;;
67076;SDS011;53991;46.364;17.008;2022-09-13T18:44:40;0.05;;;0.05;;
67076;SDS011;53991;46.364;17.008;2022-09-13T18:50:44;0.03;;;0.03;;
67076;SDS011;53991;46.364;17.008;2022-09-13T18:53:47;0.00;;;0.00;;
67076;SDS011;53991;46.364;17.008;2022-09-13T18:56:50;0.00;;;0.00;;
67076;SDS011;53991;46.364;17.008;2022-09-13T18:59:54;0.10;;;0.08;;
67076;SDS011;53991;46.364;17.008;2022-09-13T19:02:57;0.03;;;0.03;;
67076;SDS011;53991;46.364;17.008;2022-09-13T19:09:16;0.25;;;0.25;;
67076;SDS011;53991;46.364;17.008;2022-09-13T19:12:19;0.00;;;0.00;;
67076;SDS011;53991;46.364;17.008;2022-09-13T19:15:21;0.00;;;0.00;;
67076;SDS011;53991;46.364;17.008;2022-09-13T19:18:24;0.00;;;0.00;;
67076;SDS011;53991;46.364;17.008;2022-09-13T19:21:28;0.00;;;0.00;;
67076;SDS011;53991;46.364;17.008;2022-09-13T19:24:31;0.10;;;0.10;;
67076;SDS011;53991;46.364;17.008;2022-09-13T19:27:34;0.00;;;0.00;;
67076;SDS011;53991;46.364;17.008;2022-09-13T19:30:36;0.10;;;0.10;;
67076;SDS011;53991;46.364;17.008;2022-09-13T19:36:41;0.00;;;0.00;;
67076;SDS011;53991;46.364;17.008;2022-09-13T19:39:43;0.60;;;0.30;;
67076;SDS011;53991;46.364;17.008;2022-09-13T19:42:46;0.20;;;0.20;;
67076;SDS011;53991;46.364;17.008;2022-09-13T19:45:55;0.35;;;0.35;;
67076;SDS011;53991;46.364;17.008;2022-09-13T19:49:02;0.00;;;0.00;;
67076;SDS011;53991;46.364;17.008;2022-09-13T19:52:05;0.75;;;0.47;;
67076;SDS011;53991;46.364;17.008;2022-09-13T19:55:08;0.10;;;0.10;;
67076;SDS011;53991;46.364;17.008;2022-09-13T19:58:14;0.00;;;0.00;;
67076;SDS011;53991;46.364;17.008;2022-09-13T20:01:27;0.52;;;0.52;;
67076;SDS011;53991;46.364;17.008;2022-09-13T20:04:31;1.25;;;1.17;;
67076;SDS011;53991;46.364;17.008;2022-09-13T20:07:33;0.00;;;0.00;;
67076;SDS011;53991;46.364;17.008;2022-09-13T20:10:36;0.20;;;0.20;;
67076;SDS011;53991;46.364;17.008;2022-09-13T20:13:38;9.20;;;1.35;;
67076;SDS011;53991;46.364;17.008;2022-09-13T20:16:41;2.70;;;0.45;;
67076;SDS011;53991;46.364;17.008;2022-09-13T20:19:43;0.00;;;0.00;;
67076;SDS011;53991;46.364;17.008;2022-09-13T20:22:50;0.00;;;0.00;;
67076;SDS011;53991;46.364;17.008;2022-09-13T20:25:53;0.00;;;0.00;;
67076;SDS011;53991;46.364;17.008;2022-09-13T20:28:59;0.00;;;0.00;;
67076;SDS011;53991;46.364;17.008;2022-09-13T20:32:03;0.00;;;0.00;;
67076;SDS011;53991;46.364;17.008;2022-09-13T20:35:06;1.20;;;0.63;;
67076;SDS011;53991;46.364;17.008;2022-09-13T20:38:09;0.38;;;0.38;;
67076;SDS011;53991;46.364;17.008;2022-09-13T20:41:12;0.03;;;0.03;;
67076;SDS011;53991;46.364;17.008;2022-09-13T20:47:17;1.90;;;1.75;;
67076;SDS011;53991;46.364;17.008;2022-09-13T20:50:19;0.10;;;0.10;;
67076;SDS011;53991;46.364;17.008;2022-09-13T20:53:22;0.00;;;0.00;;
67076;SDS011;53991;46.364;17.008;2022-09-13T20:56:24;0.10;;;0.10;;
67076;SDS011;53991;46.364;17.008;2022-09-13T20:59:26;0.15;;;0.15;;
67076;SDS011;53991;46.364;17.008;2022-09-13T21:02:28;0.43;;;0.30;;
67076;SDS011;53991;46.364;17.008;2022-09-13T21:05:30;0.00;;;0.00;;
67076;SDS011;53991;46.364;17.008;2022-09-13T21:08:36;0.20;;;0.20;;
67076;SDS011;53991;46.364;17.008;2022-09-13T21:11:39;0.55;;;0.43;;
67076;SDS011;53991;46.364;17.008;2022-09-13T21:14:40;0.28;;;0.10;;
67076;SDS011;53991;46.364;17.008;2022-09-13T21:17:43;0.13;;;0.13;;
67076;SDS011;53991;46.364;17.008;2022-09-13T21:20:53;0.00;;;0.00;;
67076;SDS011;53991;46.364;17.008;2022-09-13T21:23:56;0.65;;;0.65;;
67076;SDS011;53991;46.364;17.008;2022-09-13T21:26:58;0.10;;;0.10;;
67076;SDS011;53991;46.364;17.008;2022-09-13T21:30:00;0.08;;;0.08;;
67076;SDS011;53991;46.364;17.008;2022-09-13T21:33:02;0.10;;;0.10;;
67076;SDS011;53991;46.364;17.008;2022-09-13T21:36:04;0.35;;;0.32;;
67076;SDS011;53991;46.364;17.008;2022-09-13T21:39:07;0.00;;;0.00;;
67076;SDS011;53991;46.364;17.008;2022-09-13T21:42:09;6.07;;;0.55;;
67076;SDS011;53991;46.364;17.008;2022-09-13T21:45:11;0.00;;;0.00;;
67076;SDS011;53991;46.364;17.008;2022-09-13T21:48:13;0.00;;;0.00;;
67076;SDS011;53991;46.364;17.008;2022-09-13T21:51:19;0.00;;;0.00;;
67076;SDS011;53991;46.364;17.008;2022-09-13T21:54:22;0.17;;;0.17;;
67076;SDS011;53991;46.364;17.008;2022-09-13T21:57:24;0.52;;;0.32;;
67076;SDS011;53991;46.364;17.008;2022-09-13T22:00:26;0.00;;;0.00;;
67076;SDS011;53991;46.364;17.008;2022-09-13T22:03:29;0.10;;;0.10;;
67076;SDS011;53991;46.364;17.008;2022-09-13T22:06:32;0.30;;;0.13;;
67076;SDS011;53991;46.364;17.008;2022-09-13T22:12:36;0.00;;;0.00;;
67076;SDS011;53991;46.364;17.008;2022-09-13T22:15:38;0.10;;;0.10;;
67076;SDS011;53991;46.364;17.008;2022-09-13T22:18:40;0.00;;;0.00;;
67076;SDS011;53991;46.364;17.008;2022-09-13T22:21:44;0.00;;;0.00;;
67076;SDS011;53991;46.364;17.008;2022-09-13T22:24:47;0.00;;;0.00;;
67076;SDS011;53991;46.364;17.008;2022-09-13T22:27:49;0.00;;;0.00;;
67076;SDS011;53991;46.364;17.008;2022-09-13T22:30:51;0.00;;;0.00;;
67076;SDS011;53991;46.364;17.008;2022-09-13T22:33:53;0.20;;;0.20;;